createdAt,value
2023-04-18T00:00:07.264Z,9.40
2023-04-18T00:02:39.926Z,9.40
2023-04-18T00:05:07.799Z,9.40
2023-04-18T00:07:35.566Z,9.30
2023-04-18T00:10:05.897Z,9.30
2023-04-18T00:12:34.378Z,9.30
2023-04-18T00:15:02.341Z,9.30
2023-04-18T00:17:31.829Z,9.20
2023-04-18T00:19:58.896Z,9.30
2023-04-18T00:22:26.881Z,9.30
2023-04-18T00:24:53.747Z,9.30
2023-04-18T00:27:23.682Z,9.30
2023-04-18T00:29:51.366Z,9.30
2023-04-18T00:32:18.271Z,9.30
2023-04-18T00:34:45.470Z,9.30
2023-04-18T00:37:12.861Z,9.20
2023-04-18T00:39:42.025Z,9.20
2023-04-18T00:42:09.086Z,9.20
2023-04-18T00:44:35.921Z,9.20
2023-04-18T00:47:02.718Z,9.20
2023-04-18T00:49:29.638Z,9.10
2023-04-18T00:51:56.853Z,9.10
2023-04-18T00:54:23.896Z,9.20
2023-04-18T00:56:50.710Z,9.10
2023-04-18T00:59:18.581Z,9.10
2023-04-18T01:01:45.721Z,9.20
2023-04-18T01:04:12.814Z,9.20
2023-04-18T01:06:40.855Z,9.10
2023-04-18T01:09:07.636Z,9.10
2023-04-18T01:11:34.472Z,9.20
2023-04-18T01:14:05.543Z,9.20
2023-04-18T01:16:37.141Z,9.20
2023-04-18T01:19:04.447Z,9.20
2023-04-18T01:21:33.957Z,9.20
2023-04-18T01:24:08.589Z,9.20
2023-04-18T01:26:35.818Z,9.20
2023-04-18T01:29:05.167Z,9.20
2023-04-18T01:31:38.505Z,9.30
2023-04-18T01:34:06.656Z,9.30
2023-04-18T01:36:35.227Z,9.30
2023-04-18T01:39:02.584Z,9.30
2023-04-18T01:41:32.423Z,9.30
2023-04-18T01:43:59.781Z,9.30
2023-04-18T01:46:27.114Z,9.30
2023-04-18T01:48:54.153Z,9.30
2023-04-18T01:51:21.570Z,9.30
2023-04-18T01:53:48.532Z,9.30
2023-04-18T01:56:15.320Z,9.30
2023-04-18T01:58:42.189Z,9.30
2023-04-18T02:01:09.192Z,9.30
2023-04-18T02:03:36.298Z,9.30
2023-04-18T02:06:04.164Z,9.40
2023-04-18T02:08:33.041Z,9.30
2023-04-18T02:11:01.343Z,9.30
2023-04-18T02:13:28.781Z,9.20
2023-04-18T02:15:57.670Z,9.30
2023-04-18T02:18:25.510Z,9.30
2023-04-18T02:20:52.700Z,9.30
2023-04-18T02:23:21.872Z,9.20
2023-04-18T02:25:48.838Z,9.20
2023-04-18T02:28:17.769Z,9.20
2023-04-18T02:30:44.788Z,9.20
2023-04-18T02:33:11.625Z,9.20
2023-04-18T02:35:38.717Z,9.20
2023-04-18T02:38:05.787Z,9.30
2023-04-18T02:40:32.649Z,9.30
2023-04-18T02:42:59.811Z,9.30
2023-04-18T02:45:26.691Z,9.30
2023-04-18T02:47:56.812Z,9.30
2023-04-18T02:50:24.709Z,9.30
2023-04-18T02:52:52.778Z,9.40
2023-04-18T02:55:22.133Z,9.40
2023-04-18T02:57:49.227Z,9.40
2023-04-18T03:00:36.300Z,9.40
2023-04-18T03:03:31.610Z,9.40
2023-04-18T03:06:11.954Z,9.40
2023-04-18T03:08:38.994Z,9.40
2023-04-18T03:11:05.953Z,9.50
2023-04-18T03:13:34.444Z,9.50
2023-04-18T03:16:02.625Z,9.40
2023-04-18T03:18:30.367Z,9.40
2023-04-18T03:20:59.171Z,9.40
2023-04-18T03:23:27.882Z,9.40
2023-04-18T03:25:54.729Z,9.30
2023-04-18T03:28:22.442Z,9.30
2023-04-18T03:30:50.795Z,9.40
2023-04-18T03:33:18.109Z,9.30
2023-04-18T03:35:47.177Z,9.30
2023-04-18T03:38:14.156Z,9.30
2023-04-18T03:40:43.127Z,9.30
2023-04-18T03:43:19.150Z,9.30
2023-04-18T03:45:47.486Z,9.20
2023-04-18T03:48:16.377Z,9.20
2023-04-18T03:50:45.368Z,9.20
2023-04-18T03:53:12.277Z,9.20
2023-04-18T03:55:39.144Z,9.20
2023-04-18T03:58:06.878Z,9.20
2023-04-18T04:00:34.340Z,9.20
2023-04-18T04:03:07.631Z,9.10
2023-04-18T04:05:34.674Z,9.10
2023-04-18T04:08:01.558Z,9.10
2023-04-18T04:10:28.431Z,9.10
2023-04-18T04:12:55.370Z,9.10
2023-04-18T04:15:22.816Z,9.20
2023-04-18T04:17:59.353Z,9.20
2023-04-18T04:20:26.613Z,9.20
2023-04-18T04:23:02.098Z,9.10
2023-04-18T04:25:33.851Z,9.10
2023-04-18T04:28:06.763Z,9.00
2023-04-18T04:30:41.742Z,8.90
2023-04-18T04:33:09.096Z,8.90
2023-04-18T04:35:36.731Z,8.80
2023-04-18T04:38:04.521Z,8.90
2023-04-18T04:40:38.754Z,8.80
2023-04-18T04:43:15.615Z,8.90
2023-04-18T04:45:44.595Z,8.90
2023-04-18T04:48:12.285Z,8.90
2023-04-18T04:50:40.561Z,8.80
2023-04-18T04:53:08.000Z,8.70
2023-04-18T04:55:34.990Z,8.70
2023-04-18T04:58:04.152Z,8.70
2023-04-18T05:00:57.247Z,8.60
2023-04-18T05:03:26.497Z,8.50
2023-04-18T05:05:53.554Z,8.50
2023-04-18T05:08:20.630Z,8.40
2023-04-18T05:10:49.790Z,8.40
2023-04-18T05:13:16.898Z,8.50
2023-04-18T05:15:44.101Z,8.50
2023-04-18T05:18:11.160Z,8.50
2023-04-18T05:20:37.978Z,8.40
2023-04-18T05:23:04.852Z,8.40
2023-04-18T05:25:31.988Z,8.40
2023-04-18T05:28:04.653Z,8.40
2023-04-18T05:30:31.674Z,8.40
2023-04-18T05:32:58.502Z,8.30
2023-04-18T05:35:25.508Z,8.30
2023-04-18T05:37:52.359Z,8.20
2023-04-18T05:40:19.303Z,8.20
2023-04-18T05:42:46.098Z,8.30
2023-04-18T05:45:13.052Z,8.20
2023-04-18T05:47:40.012Z,8.20
2023-04-18T05:50:07.668Z,8.20
2023-04-18T05:52:34.667Z,8.20
2023-04-18T05:55:01.503Z,8.30
2023-04-18T05:57:28.426Z,8.30
2023-04-18T05:59:55.754Z,8.30
2023-04-18T06:02:22.691Z,8.20
2023-04-18T06:04:49.999Z,8.20
2023-04-18T06:07:17.169Z,8.30
2023-04-18T06:09:44.019Z,8.30
2023-04-18T06:12:10.805Z,8.30
2023-04-18T06:14:37.717Z,8.30
2023-04-18T06:17:05.884Z,8.30
2023-04-18T06:19:32.779Z,8.40
2023-04-18T06:21:59.606Z,8.40
2023-04-18T06:24:26.486Z,8.40
2023-04-18T06:26:55.022Z,8.40
2023-04-18T06:29:23.188Z,8.40
2023-04-18T06:31:52.127Z,8.40
2023-04-18T06:34:19.309Z,8.40
2023-04-18T06:36:46.222Z,8.40
2023-04-18T06:39:13.101Z,8.40
2023-04-18T06:41:39.943Z,8.40
2023-04-18T06:44:06.951Z,8.50
2023-04-18T06:46:33.897Z,8.40
2023-04-18T06:49:00.865Z,8.40
2023-04-18T06:51:27.899Z,8.30
2023-04-18T06:53:54.735Z,8.40
2023-04-18T06:56:21.671Z,8.40
2023-04-18T06:58:49.027Z,8.40
2023-04-18T07:01:16.074Z,8.40
2023-04-18T07:03:43.147Z,8.30
2023-04-18T07:06:11.086Z,8.40
2023-04-18T07:08:38.032Z,8.40
2023-04-18T07:11:06.378Z,8.50
2023-04-18T07:13:33.400Z,8.50
2023-04-18T07:16:01.302Z,8.60
2023-04-18T07:18:37.175Z,8.60
2023-04-18T07:21:07.859Z,8.60
2023-04-18T07:23:35.450Z,8.60
2023-04-18T07:26:03.009Z,8.60
2023-04-18T07:28:31.450Z,8.60
2023-04-18T07:30:58.739Z,8.60
2023-04-18T07:33:25.837Z,8.70
2023-04-18T07:35:53.187Z,8.80
2023-04-18T07:38:20.233Z,8.90
2023-04-18T07:40:47.197Z,8.90
2023-04-18T07:43:14.861Z,8.90
2023-04-18T07:45:43.252Z,9.00
2023-04-18T07:48:11.359Z,9.20
2023-04-18T07:50:38.363Z,9.40
2023-04-18T07:53:05.310Z,9.50
2023-04-18T07:55:32.209Z,9.50
2023-04-18T07:57:59.078Z,9.60
2023-04-18T08:00:26.375Z,9.60
2023-04-18T08:02:53.505Z,9.60
2023-04-18T08:05:23.560Z,9.50
2023-04-18T08:07:50.543Z,9.50
2023-04-18T08:10:17.433Z,9.60
2023-04-18T08:12:44.311Z,9.60
2023-04-18T08:15:11.672Z,9.70
2023-04-18T08:17:39.047Z,9.60
2023-04-18T08:20:07.349Z,9.70
2023-04-18T08:22:37.767Z,9.80
2023-04-18T08:25:08.473Z,9.90
2023-04-18T08:27:35.466Z,10.00
2023-04-18T08:30:04.389Z,10.00
2023-04-18T08:32:35.884Z,10.10
2023-04-18T08:35:04.142Z,10.10
2023-04-18T08:37:32.610Z,10.10
2023-04-18T08:39:59.691Z,10.20
2023-04-18T08:42:26.466Z,10.30
2023-04-18T08:44:54.107Z,10.30
2023-04-18T08:47:21.631Z,10.40
2023-04-18T08:49:48.875Z,10.50
2023-04-18T08:52:17.035Z,10.50
2023-04-18T08:54:46.580Z,10.50
2023-04-18T08:57:16.572Z,10.40
2023-04-18T08:59:48.946Z,10.40
2023-04-18T09:02:17.928Z,10.40
2023-04-18T09:04:45.809Z,10.40
2023-04-18T09:07:17.390Z,10.40
2023-04-18T09:09:48.850Z,10.40
2023-04-18T09:12:26.536Z,10.30
2023-04-18T09:14:57.424Z,10.40
2023-04-18T09:17:46.096Z,10.40
2023-04-18T09:20:15.652Z,10.50
2023-04-18T09:22:50.998Z,10.50
2023-04-18T09:25:34.847Z,10.60
2023-04-18T09:28:02.384Z,10.60
2023-04-18T09:30:42.304Z,10.60
2023-04-18T09:33:10.196Z,10.50
2023-04-18T09:35:40.565Z,10.50
2023-04-18T09:38:07.834Z,10.40
2023-04-18T09:40:34.992Z,10.50
2023-04-18T09:43:18.123Z,10.50
2023-04-18T09:45:45.857Z,10.50
2023-04-18T09:48:12.760Z,10.60
2023-04-18T09:50:40.234Z,10.60
2023-04-18T09:53:08.495Z,10.60
2023-04-18T09:55:35.505Z,10.50
2023-04-18T09:58:02.324Z,10.60
2023-04-18T10:00:30.111Z,10.50
2023-04-18T10:02:58.841Z,10.60
2023-04-18T10:05:28.865Z,10.60
2023-04-18T10:07:55.897Z,10.60
2023-04-18T10:10:23.253Z,10.50
2023-04-18T10:12:51.553Z,10.50
2023-04-18T10:15:19.840Z,10.60
2023-04-18T10:18:04.624Z,10.60
2023-04-18T10:20:33.582Z,10.60
2023-04-18T10:23:00.497Z,10.60
2023-04-18T10:25:39.693Z,10.60
2023-04-18T10:28:09.124Z,10.60
2023-04-18T10:30:41.647Z,10.60
2023-04-18T10:33:30.534Z,10.60
2023-04-18T10:36:14.866Z,10.70
2023-04-18T10:38:46.879Z,10.70
2023-04-18T10:41:22.289Z,10.80
2023-04-18T10:44:08.631Z,10.90
2023-04-18T10:46:39.633Z,10.80
2023-04-18T10:49:52.841Z,10.90
2023-04-18T10:52:19.638Z,10.90
2023-04-18T10:54:52.762Z,10.90
2023-04-18T10:57:19.990Z,10.90
2023-04-18T10:59:50.990Z,10.90
2023-04-18T11:02:23.946Z,10.90
2023-04-18T11:04:51.787Z,10.90
2023-04-18T11:07:18.576Z,10.70
2023-04-18T11:09:53.735Z,10.70
2023-04-18T11:12:20.611Z,10.70
2023-04-18T11:14:50.048Z,10.70
2023-04-18T11:17:21.991Z,10.70
2023-04-18T11:19:49.838Z,10.70
2023-04-18T11:22:17.075Z,10.70
2023-04-18T11:24:44.544Z,10.80
2023-04-18T11:27:12.145Z,10.70
2023-04-18T11:29:38.966Z,10.70
2023-04-18T11:32:07.235Z,10.70
2023-04-18T11:34:34.337Z,10.80
2023-04-18T11:37:01.557Z,10.90
2023-04-18T11:39:28.438Z,11.00
2023-04-18T11:41:57.148Z,11.00
2023-04-18T11:44:24.649Z,11.00
2023-04-18T11:46:54.605Z,11.10
2023-04-18T11:49:25.610Z,11.00
2023-04-18T11:51:53.710Z,11.00
2023-04-18T11:54:37.536Z,11.00
2023-04-18T11:57:05.168Z,10.80
2023-04-18T11:59:32.326Z,10.90
2023-04-18T12:02:15.228Z,10.90
2023-04-18T12:05:11.130Z,10.90
2023-04-18T12:07:38.995Z,10.90
2023-04-18T12:10:21.017Z,10.90
2023-04-18T12:12:48.806Z,10.80
2023-04-18T12:15:16.593Z,10.80
2023-04-18T12:17:48.560Z,10.70
2023-04-18T12:20:16.123Z,10.70
2023-04-18T12:22:49.631Z,10.80
2023-04-18T12:25:27.086Z,10.80
2023-04-18T12:27:54.720Z,10.80
2023-04-18T12:30:29.459Z,10.90
2023-04-18T12:32:58.163Z,10.90
2023-04-18T12:35:25.657Z,10.80
2023-04-18T12:37:53.945Z,10.80
2023-04-18T12:40:21.903Z,10.90
2023-04-18T12:42:49.669Z,10.90
2023-04-18T12:45:17.482Z,10.90
2023-04-18T12:47:45.544Z,10.90
2023-04-18T12:50:18.084Z,10.90
2023-04-18T12:52:45.260Z,10.80
2023-04-18T12:55:12.260Z,10.70
2023-04-18T12:57:39.241Z,10.70
2023-04-18T13:00:11.004Z,10.70
2023-04-18T13:02:39.085Z,10.70
2023-04-18T13:05:07.762Z,10.70
2023-04-18T13:07:34.771Z,10.60
2023-04-18T13:10:01.707Z,10.50
2023-04-18T13:12:30.468Z,10.50
2023-04-18T13:14:57.757Z,10.40
2023-04-18T13:17:24.673Z,10.30
2023-04-18T13:19:51.966Z,10.30
2023-04-18T13:22:21.730Z,10.30
2023-04-18T13:24:48.757Z,10.40
2023-04-18T13:27:15.907Z,10.40
2023-04-18T13:29:43.222Z,10.40
2023-04-18T13:32:10.331Z,10.50
2023-04-18T13:34:38.544Z,10.50
2023-04-18T13:37:05.861Z,10.50
2023-04-18T13:39:33.217Z,10.40
2023-04-18T13:42:02.640Z,10.40
2023-04-18T13:44:32.976Z,10.50
2023-04-18T13:47:00.770Z,10.50
2023-04-18T13:49:27.700Z,10.60
2023-04-18T13:51:57.165Z,10.70
2023-04-18T13:54:28.262Z,10.80
2023-04-18T13:56:57.253Z,10.90
2023-04-18T13:59:27.080Z,11.00
2023-04-18T14:01:54.610Z,11.00
2023-04-18T14:04:22.418Z,11.00
2023-04-18T14:06:49.731Z,11.00
2023-04-18T14:09:17.204Z,10.90
2023-04-18T14:11:44.440Z,10.90
2023-04-18T14:14:11.307Z,10.80
2023-04-18T14:16:38.296Z,10.90
2023-04-18T14:19:05.290Z,10.80
2023-04-18T14:21:32.152Z,10.80
2023-04-18T14:23:59.180Z,10.70
2023-04-18T14:26:26.109Z,10.70
2023-04-18T14:28:53.132Z,10.70
2023-04-18T14:31:20.227Z,10.70
2023-04-18T14:33:47.312Z,10.80
2023-04-18T14:36:15.356Z,10.80
2023-04-18T14:38:42.475Z,10.80
2023-04-18T14:41:09.337Z,10.70
2023-04-18T14:43:36.251Z,10.70
2023-04-18T14:46:03.109Z,10.70
2023-04-18T14:48:30.138Z,10.70
2023-04-18T14:50:57.914Z,10.80
2023-04-18T14:53:25.331Z,10.80
2023-04-18T14:55:52.540Z,10.80
2023-04-18T14:58:19.562Z,10.80
2023-04-18T15:00:46.429Z,10.80
2023-04-18T15:03:13.468Z,10.80
2023-04-18T15:05:43.194Z,10.80
2023-04-18T15:08:11.454Z,10.80
2023-04-18T15:10:40.101Z,10.80
2023-04-18T15:13:07.003Z,10.80
2023-04-18T15:15:35.717Z,10.80
2023-04-18T15:18:02.873Z,10.70
2023-04-18T15:20:29.897Z,10.70
2023-04-18T15:22:57.252Z,10.60
2023-04-18T15:25:26.078Z,10.60
2023-04-18T15:27:53.204Z,10.70
2023-04-18T15:30:20.484Z,10.80
2023-04-18T15:32:48.388Z,10.80
2023-04-18T15:35:15.208Z,10.80
2023-04-18T15:37:42.190Z,10.70
2023-04-18T15:40:10.395Z,10.80
2023-04-18T15:42:37.457Z,10.70
2023-04-18T15:45:04.790Z,10.60
2023-04-18T15:47:34.041Z,10.50
2023-04-18T15:50:01.128Z,10.60
2023-04-18T15:52:27.955Z,10.60
2023-04-18T15:54:57.722Z,10.50
2023-04-18T15:57:24.621Z,10.60
2023-04-18T15:59:51.665Z,10.60
2023-04-18T16:02:18.739Z,10.60
2023-04-18T16:04:45.927Z,10.50
2023-04-18T16:07:12.868Z,10.60
2023-04-18T16:09:39.741Z,10.70
2023-04-18T16:12:08.194Z,10.70
2023-04-18T16:14:35.205Z,10.70
2023-04-18T16:17:02.803Z,10.70
2023-04-18T16:19:29.943Z,10.70
2023-04-18T16:21:56.766Z,10.80
2023-04-18T16:24:25.516Z,10.90
2023-04-18T16:26:53.505Z,11.00
2023-04-18T16:29:20.340Z,11.10
2023-04-18T16:31:48.114Z,11.10
2023-04-18T16:34:15.729Z,11.10
2023-04-18T16:36:42.731Z,11.00
2023-04-18T16:39:09.590Z,10.90
2023-04-18T16:41:36.300Z,10.80
2023-04-18T16:44:03.240Z,10.80
2023-04-18T16:46:32.200Z,10.80
2023-04-18T16:48:59.377Z,10.80
2023-04-18T16:51:26.887Z,10.80
2023-04-18T16:53:53.682Z,10.90
2023-04-18T16:56:20.746Z,11.00
2023-04-18T16:58:47.678Z,10.90
2023-04-18T17:01:14.511Z,11.00
2023-04-18T17:03:41.915Z,10.90
2023-04-18T17:09:50.171Z,10.90
2023-04-18T17:12:17.206Z,10.80
2023-04-18T17:14:44.086Z,10.90
2023-04-18T17:17:10.992Z,10.90
2023-04-18T17:19:37.890Z,11.00
2023-04-18T17:22:04.725Z,11.00
2023-04-18T17:24:31.579Z,11.00
2023-04-18T17:26:58.548Z,11.10
2023-04-18T17:29:26.141Z,11.10
2023-04-18T17:31:53.774Z,11.10
2023-04-18T17:34:21.367Z,11.10
2023-04-18T17:36:48.320Z,11.00
2023-04-18T17:39:16.828Z,11.00
2023-04-18T17:41:44.921Z,11.00
2023-04-18T17:44:11.751Z,11.00
2023-04-18T17:46:38.793Z,11.00
2023-04-18T17:49:05.662Z,10.90
2023-04-18T17:51:32.586Z,10.80
2023-04-18T17:53:59.388Z,10.80
2023-04-18T17:56:26.875Z,10.80
2023-04-18T17:58:55.923Z,10.80
2023-04-18T18:01:24.684Z,10.90
2023-04-18T18:03:53.495Z,10.80
2023-04-18T18:06:20.974Z,10.80
2023-04-18T18:08:47.913Z,10.70
2023-04-18T18:11:14.818Z,10.80
2023-04-18T18:13:42.252Z,10.80
2023-04-18T18:16:09.172Z,10.80
2023-04-18T18:18:36.864Z,10.80
2023-04-18T18:21:03.880Z,10.70
2023-04-18T18:23:30.780Z,10.70
2023-04-18T18:25:57.632Z,10.70
2023-04-18T18:28:24.706Z,10.60
2023-04-18T18:30:51.588Z,10.70
2023-04-18T18:33:18.922Z,10.70
2023-04-18T18:35:45.760Z,10.70
2023-04-18T18:38:12.601Z,10.70
2023-04-18T18:40:39.365Z,10.60
2023-04-18T18:43:06.284Z,10.50
2023-04-18T18:45:33.197Z,10.60
2023-04-18T18:48:00.101Z,10.50
2023-04-18T18:50:27.017Z,10.50
2023-04-18T18:52:53.814Z,10.40
2023-04-18T18:55:20.789Z,10.40
2023-04-18T18:57:47.638Z,10.40
2023-04-18T19:00:14.558Z,10.30
2023-04-18T19:02:41.874Z,10.30
2023-04-18T19:05:09.491Z,10.20
2023-04-18T19:07:36.244Z,10.20
2023-04-18T19:10:03.498Z,10.10
2023-04-18T19:12:30.332Z,10.00
2023-04-18T19:14:57.125Z,10.00
2023-04-18T19:17:24.796Z,9.90
2023-04-18T19:19:52.518Z,9.90
2023-04-18T19:22:19.476Z,9.80
2023-04-18T19:24:46.336Z,9.80
2023-04-18T19:27:13.199Z,9.80
2023-04-18T19:29:39.998Z,9.80
2023-04-18T19:32:06.898Z,9.70
2023-04-18T19:34:33.740Z,9.70
2023-04-18T19:37:01.343Z,9.70
2023-04-18T19:39:28.470Z,9.70
2023-04-18T19:41:55.459Z,9.70
2023-04-18T19:44:22.960Z,9.70
2023-04-18T19:46:49.805Z,9.70
2023-04-18T19:49:16.997Z,9.70
2023-04-18T19:51:43.993Z,9.70
2023-04-18T19:54:10.868Z,9.70
2023-04-18T19:56:37.692Z,9.60
2023-04-18T19:59:06.004Z,9.60
2023-04-18T20:01:33.108Z,9.50
2023-04-18T20:04:00.604Z,9.60
2023-04-18T20:06:27.981Z,9.60
2023-04-18T20:08:54.913Z,9.60
2023-04-18T20:11:22.184Z,9.70
2023-04-18T20:13:49.334Z,9.70
2023-04-18T20:16:16.947Z,9.80
2023-04-18T20:18:47.260Z,9.80
2023-04-18T20:21:14.237Z,9.80
2023-04-18T20:23:42.565Z,9.80
2023-04-18T20:26:09.590Z,9.80
2023-04-18T20:28:37.819Z,9.80
2023-04-18T20:31:04.764Z,9.90
2023-04-18T20:33:31.700Z,9.90
2023-04-18T20:35:58.918Z,9.90
2023-04-18T20:38:29.720Z,9.90
2023-04-18T20:40:58.963Z,9.90
2023-04-18T20:43:26.799Z,10.00
2023-04-18T20:45:54.552Z,10.00
2023-04-18T20:48:21.696Z,9.90
2023-04-18T20:50:51.843Z,9.90
2023-04-18T20:53:20.726Z,9.90
2023-04-18T20:55:50.046Z,10.00
2023-04-18T20:58:16.872Z,10.00
2023-04-18T21:00:48.228Z,10.00
2023-04-18T21:03:18.339Z,10.00
2023-04-18T21:05:45.643Z,10.00
2023-04-18T21:08:12.743Z,10.00
2023-04-18T21:10:39.812Z,10.00
2023-04-18T21:13:06.795Z,10.00
2023-04-18T21:15:35.263Z,10.10
2023-04-18T21:18:02.193Z,10.10
2023-04-18T21:20:29.179Z,10.10
2023-04-18T21:22:56.182Z,10.20
2023-04-18T21:25:23.114Z,10.20
2023-04-18T21:27:50.844Z,10.10
2023-04-18T21:30:18.088Z,10.10
2023-04-18T21:32:45.981Z,10.20
2023-04-18T21:35:13.211Z,10.20
2023-04-18T21:37:40.258Z,10.20
2023-04-18T21:40:07.754Z,10.10
2023-04-18T21:42:35.460Z,10.10
2023-04-18T21:45:02.444Z,10.20
2023-04-18T21:47:29.254Z,10.20
2023-04-18T21:49:56.174Z,10.20
2023-04-18T21:52:23.021Z,10.20
2023-04-18T21:54:49.903Z,10.20
2023-04-18T21:57:16.826Z,10.20
2023-04-18T21:59:43.797Z,10.20
2023-04-18T22:02:10.724Z,10.20
2023-04-18T22:04:38.049Z,10.20
2023-04-18T22:07:05.110Z,10.10
2023-04-18T22:09:34.368Z,10.10
2023-04-18T22:12:03.286Z,10.10
2023-04-18T22:14:32.106Z,10.20
2023-04-18T22:16:59.368Z,10.10
2023-04-18T22:19:27.569Z,10.20
2023-04-18T22:21:54.320Z,10.10
2023-04-18T22:24:21.973Z,10.10
2023-04-18T22:26:48.908Z,10.10
2023-04-18T22:29:15.754Z,10.00
2023-04-18T22:31:42.849Z,10.00
2023-04-18T22:34:09.826Z,9.90
2023-04-18T22:36:37.545Z,9.90
2023-04-18T22:39:04.589Z,9.90
2023-04-18T22:41:31.529Z,9.80
2023-04-18T22:43:58.422Z,9.80
2023-04-18T22:46:25.313Z,9.80
2023-04-18T22:48:52.136Z,9.80
2023-04-18T22:51:20.212Z,9.80
2023-04-18T22:53:47.052Z,9.70
2023-04-18T22:56:13.918Z,9.70
2023-04-18T22:58:40.782Z,9.60
2023-04-18T23:01:07.675Z,9.60
2023-04-18T23:03:34.828Z,9.50
2023-04-18T23:06:01.691Z,9.50
2023-04-18T23:08:28.531Z,9.50
2023-04-18T23:10:55.494Z,9.50
2023-04-18T23:13:22.852Z,9.50
2023-04-18T23:15:49.970Z,9.50
2023-04-18T23:18:16.835Z,9.40
2023-04-18T23:20:43.751Z,9.40
2023-04-18T23:23:10.544Z,9.50
2023-04-18T23:25:37.508Z,9.40
2023-04-18T23:28:04.555Z,9.40
2023-04-18T23:30:31.580Z,9.40
2023-04-18T23:32:58.415Z,9.30
2023-04-18T23:35:25.300Z,9.40
2023-04-18T23:37:52.260Z,9.30
2023-04-18T23:40:19.235Z,9.30
2023-04-18T23:42:47.109Z,9.30
2023-04-18T23:45:14.098Z,9.30
2023-04-18T23:47:41.120Z,9.30
2023-04-18T23:50:08.525Z,9.30
2023-04-18T23:52:35.378Z,9.20
2023-04-18T23:55:02.623Z,9.20
2023-04-18T23:57:29.526Z,9.20
2023-04-18T23:59:56.439Z,9.20
